Time;durP1;ratioP1;P1;durP2;ratioP2;P2;SDS_P1;SDS_P2;PMS_P1;PMS_P2;Temp;Humidity;BMP_temperature;BMP_pressure;BME280_temperature;BME280_humidity;BME280_pressure;Samples;Min_cycle;Max_cycle;Signal;HPM_P1;HPM_P2
2022/06/18 00:00:41;;;;;;;2.20;2.10;;;22.00;47.20;;;;;;5023657;28;20492;-60
2022/06/18 00:03:09;;;;;;;2.37;2.17;;;21.90;47.00;;;;;;5022955;28;20475;-60
2022/06/18 00:05:36;;;;;;;2.40;2.30;;;22.00;47.10;;;;;;5024463;28;20462;-60
2022/06/18 00:08:04;;;;;;;2.53;2.33;;;21.90;47.00;;;;;;5022792;28;20478;-60
2022/06/18 00:10:31;;;;;;;2.10;2.00;;;21.90;47.10;;;;;;5022421;28;20565;-60
2022/06/18 00:13:40;;;;;;;2.40;2.30;;;21.90;47.00;;;;;;5019044;28;20457;-60
2022/06/18 00:16:11;;;;;;;2.23;2.13;;;22.00;47.10;;;;;;5020401;28;20464;-60
2022/06/18 00:18:37;;;;;;;2.50;2.40;;;22.00;47.10;;;;;;5021030;28;20484;-60
2022/06/18 00:21:05;;;;;;;2.23;2.13;;;21.90;47.10;;;;;;5022678;28;20427;-60
2022/06/18 00:23:31;;;;;;;2.20;2.10;;;21.90;47.10;;;;;;5025767;28;20467;-60
2022/06/18 00:25:57;;;;;;;2.17;2.07;;;21.90;47.00;;;;;;5021879;28;20516;-60
2022/06/18 00:28:27;;;;;;;2.20;2.10;;;22.00;47.20;;;;;;5023141;28;20444;-60
2022/06/18 00:30:54;;;;;;;2.40;2.30;;;21.90;47.10;;;;;;5021847;28;20627;-60
2022/06/18 00:33:20;;;;;;;2.20;2.10;;;21.90;47.10;;;;;;5019326;28;20444;-60
2022/06/18 00:35:47;;;;;;;2.10;2.00;;;22.00;47.10;;;;;;5024998;28;20453;-60
2022/06/18 00:38:25;;;;;;;2.57;2.47;;;22.00;47.90;;;;;;5021535;28;20431;-60
2022/06/18 00:40:52;;;;;;;2.00;1.90;;;22.00;47.10;;;;;;5021763;28;20464;-60
2022/06/18 00:43:40;;;;;;;2.10;2.00;;;21.90;47.00;;;;;;5022909;28;20441;-60
2022/06/18 00:46:11;;;;;;;2.00;1.90;;;21.90;47.00;;;;;;5021293;28;20472;-60
2022/06/18 00:48:43;;;;;;;2.23;2.13;;;21.90;47.00;;;;;;5025291;28;20505;-60
2022/06/18 00:51:30;;;;;;;2.57;2.47;;;21.90;47.10;;;;;;5020136;28;20457;-61
2022/06/18 00:54:05;;;;;;;2.30;2.20;;;21.90;47.00;;;;;;5005148;28;20554;-64
2022/06/18 00:56:49;;;;;;;2.50;2.40;;;21.90;47.10;;;;;;5013160;28;20876;-60
2022/06/18 00:59:31;;;;;;;2.80;2.50;;;21.90;47.10;;;;;;5021147;28;20529;-60
2022/06/18 01:01:58;;;;;;;2.20;2.00;;;21.90;47.00;;;;;;5021466;28;20460;-60
2022/06/18 01:04:26;;;;;;;2.30;2.20;;;21.90;47.00;;;;;;5021282;28;20580;-60
2022/06/18 01:07:16;;;;;;;2.27;2.17;;;21.90;47.00;;;;;;5017255;28;20454;-60
2022/06/18 01:09:45;;;;;;;2.30;2.20;;;22.00;47.10;;;;;;5023920;28;20489;-60
2022/06/18 01:12:11;;;;;;;2.03;1.93;;;21.90;47.10;;;;;;5019051;28;20747;-64
2022/06/18 01:14:37;;;;;;;2.30;2.10;;;21.90;47.00;;;;;;5024968;28;21052;-61
2022/06/18 01:17:04;;;;;;;2.40;2.30;;;21.90;47.00;;;;;;5026101;28;20227;-60
2022/06/18 01:19:43;;;;;;;2.50;2.40;;;21.90;47.10;;;;;;5026735;28;20782;-60
2022/06/18 01:22:39;;;;;;;2.43;2.33;;;21.90;47.00;;;;;;5008496;28;20464;-60
2022/06/18 01:25:07;;;;;;;2.33;2.23;;;21.90;47.00;;;;;;5022938;28;20509;-60
2022/06/18 01:27:34;;;;;;;2.10;2.00;;;21.90;47.10;;;;;;5022105;28;20445;-60
2022/06/18 01:30:04;;;;;;;2.27;2.17;;;21.90;47.10;;;;;;5006245;28;20540;-60
2022/06/18 01:32:30;;;;;;;2.10;2.00;;;21.90;47.10;;;;;;5021449;28;20468;-60
2022/06/18 01:34:56;;;;;;;2.43;2.33;;;21.90;47.90;;;;;;5024503;28;20445;-60
2022/06/18 01:37:22;;;;;;;2.27;2.17;;;21.90;47.10;;;;;;5025628;28;20457;-60
2022/06/18 01:39:48;;;;;;;2.43;2.27;;;21.90;47.10;;;;;;5002752;28;20511;-60
2022/06/18 01:42:26;;;;;;;2.43;2.30;;;21.90;47.10;;;;;;5023989;28;20230;-60
2022/06/18 01:45:19;;;;;;;2.80;2.70;;;21.90;47.10;;;;;;5021763;28;20810;-60
2022/06/18 01:47:50;;;;;;;2.20;2.10;;;21.90;47.10;;;;;;5014480;28;20453;-60
2022/06/18 01:50:44;;;;;;;2.23;2.13;;;21.90;47.10;;;;;;5024720;28;20440;-60
2022/06/18 01:53:18;;;;;;;2.10;2.00;;;21.90;47.10;;;;;;5020682;28;20476;-60
2022/06/18 01:56:01;;;;;;;2.10;2.00;;;21.90;47.20;;;;;;5023105;28;20460;-60
2022/06/18 01:58:48;;;;;;;2.47;2.37;;;21.90;47.10;;;;;;5019880;28;20460;-60
2022/06/18 02:01:21;;;;;;;2.27;2.17;;;21.90;47.10;;;;;;5019269;28;20452;-60
2022/06/18 02:03:47;;;;;;;2.57;2.20;;;21.90;47.90;;;;;;5020144;28;20458;-61
2022/06/18 02:06:13;;;;;;;2.10;2.00;;;21.90;47.10;;;;;;5020029;28;20515;-60
2022/06/18 02:08:39;;;;;;;3.40;1.90;;;21.90;47.10;;;;;;5022340;28;20285;-60
2022/06/18 02:11:07;;;;;;;2.27;2.17;;;21.90;47.10;;;;;;5021724;28;20460;-60
2022/06/18 02:13:42;;;;;;;1.93;1.83;;;21.90;47.10;;;;;;5019583;28;20218;-60
2022/06/18 02:16:15;;;;;;;2.23;2.10;;;21.90;47.10;;;;;;5022719;28;20449;-60
2022/06/18 02:18:42;;;;;;;1.90;1.80;;;21.90;47.10;;;;;;5019752;28;20471;-60
2022/06/18 02:21:11;;;;;;;2.10;2.00;;;21.90;47.10;;;;;;5019506;28;20480;-60
2022/06/18 02:23:37;;;;;;;2.10;2.00;;;21.90;47.10;;;;;;5019940;28;20960;-61
2022/06/18 02:26:04;;;;;;;2.50;2.40;;;21.90;47.10;;;;;;5020847;28;20484;-60
2022/06/18 02:28:33;;;;;;;2.33;2.13;;;21.90;47.20;;;;;;5023431;28;20227;-60
2022/06/18 02:31:01;;;;;;;2.57;2.47;;;21.90;47.10;;;;;;5019280;28;20449;-60
2022/06/18 02:33:35;;;;;;;2.33;2.13;;;21.90;47.10;;;;;;5019209;28;20448;-60
2022/06/18 02:36:13;;;;;;;2.27;2.17;;;21.90;47.10;;;;;;5027238;28;20935;-60
2022/06/18 02:38:38;;;;;;;2.47;2.37;;;21.90;47.20;;;;;;5023552;28;20464;-60
2022/06/18 02:41:04;;;;;;;2.67;2.47;;;21.90;47.20;;;;;;5022245;28;20463;-60
2022/06/18 02:43:30;;;;;;;2.20;2.10;;;21.90;47.20;;;;;;5026271;28;20228;-60
2022/06/18 02:45:56;;;;;;;2.10;2.00;;;21.90;47.20;;;;;;5024077;28;20239;-60
2022/06/18 02:48:27;;;;;;;2.13;2.03;;;21.90;47.20;;;;;;5027430;28;20667;-60
2022/06/18 02:50:55;;;;;;;2.07;1.97;;;21.90;47.20;;;;;;5023715;28;20540;-60
2022/06/18 02:53:21;;;;;;;1.93;1.83;;;21.90;47.20;;;;;;5016143;28;20522;-60
2022/06/18 02:55:50;;;;;;;2.60;2.20;;;21.90;47.20;;;;;;5026629;28;20462;-60
2022/06/18 02:58:29;;;;;;;2.43;2.33;;;21.90;47.20;;;;;;5020036;28;20284;-61
2022/06/18 03:01:01;;;;;;;1.90;1.80;;;21.90;47.20;;;;;;5017891;28;20451;-60
2022/06/18 03:03:31;;;;;;;2.50;2.30;;;21.90;47.20;;;;;;5004153;28;20452;-60
2022/06/18 03:05:57;;;;;;;2.97;2.77;;;21.90;47.20;;;;;;5018608;28;20519;-60
2022/06/18 03:08:25;;;;;;;1.90;1.80;;;21.90;47.30;;;;;;5021882;28;20452;-60
2022/06/18 03:13:38;;;;;;;2.00;1.90;;;21.90;47.20;;;;;;5020816;28;20430;-60
2022/06/18 03:16:07;;;;;;;2.10;2.00;;;21.90;47.20;;;;;;5020430;28;20823;-60
2022/06/18 03:18:36;;;;;;;1.97;1.87;;;21.90;47.30;;;;;;5019473;28;20996;-60
2022/06/18 03:21:04;;;;;;;2.40;2.20;;;21.90;47.30;;;;;;5017730;28;20449;-60
2022/06/18 03:23:30;;;;;;;2.13;2.03;;;21.90;47.30;;;;;;5021957;28;20487;-60
2022/06/18 03:25:56;;;;;;;2.20;2.10;;;21.90;47.30;;;;;;5019829;28;20453;-60
2022/06/18 03:28:24;;;;;;;2.37;2.27;;;21.90;47.20;;;;;;5017893;28;20455;-60
2022/06/18 03:30:49;;;;;;;2.20;2.10;;;21.90;47.30;;;;;;5022435;28;20211;-60
2022/06/18 03:33:15;;;;;;;2.80;2.40;;;21.90;47.30;;;;;;5014369;28;20453;-61
2022/06/18 03:35:44;;;;;;;2.63;2.43;;;21.90;47.30;;;;;;5023831;28;20228;-60
2022/06/18 03:38:14;;;;;;;2.00;1.90;;;21.90;47.30;;;;;;5017251;28;20246;-60
2022/06/18 03:40:40;;;;;;;2.20;2.10;;;21.90;48.10;;;;;;5020311;28;20480;-60
2022/06/18 03:43:06;;;;;;;2.00;1.90;;;21.90;47.30;;;;;;5022859;28;20456;-60
2022/06/18 03:45:37;;;;;;;2.50;2.40;;;21.90;47.30;;;;;;5021161;28;21018;-60
2022/06/18 03:48:04;;;;;;;2.23;2.13;;;21.90;47.30;;;;;;5015552;28;20219;-61
2022/06/18 03:50:30;;;;;;;2.40;2.30;;;21.90;47.30;;;;;;5020241;28;20882;-60
2022/06/18 03:52:55;;;;;;;2.80;2.60;;;21.90;47.30;;;;;;5012779;28;20473;-60
2022/06/18 03:55:21;;;;;;;2.50;2.33;;;21.90;47.20;;;;;;5031313;28;20227;-60
2022/06/18 03:57:46;;;;;;;2.10;1.90;;;21.90;47.30;;;;;;5022811;28;20216;-60
2022/06/18 04:00:21;;;;;;;2.13;2.03;;;21.90;47.30;;;;;;5022434;28;20255;-60
2022/06/18 04:02:47;;;;;;;2.27;2.17;;;21.90;47.20;;;;;;5027723;28;20223;-60
2022/06/18 04:05:13;;;;;;;2.13;1.93;;;21.90;47.30;;;;;;5024654;28;20558;-60
2022/06/18 04:07:41;;;;;;;2.13;2.03;;;21.90;47.30;;;;;;5022551;28;20684;-60
2022/06/18 04:10:08;;;;;;;2.27;2.10;;;21.90;47.30;;;;;;5028676;28;20420;-60
2022/06/18 04:12:34;;;;;;;2.27;2.17;;;21.90;47.30;;;;;;5025542;28;20520;-60
2022/06/18 04:15:00;;;;;;;3.93;2.27;;;21.90;47.30;;;;;;5026852;28;21038;-60
2022/06/18 04:17:26;;;;;;;2.23;2.13;;;21.90;47.30;;;;;;5028307;28;20357;-60
2022/06/18 04:19:52;;;;;;;2.20;2.00;;;21.90;48.10;;;;;;5022089;28;20232;-60
2022/06/18 04:22:18;;;;;;;2.10;2.00;;;21.90;47.30;;;;;;5009014;28;20439;-60
2022/06/18 04:24:43;;;;;;;2.00;1.90;;;21.90;47.30;;;;;;5025009;28;20748;-60
2022/06/18 04:27:09;;;;;;;2.13;2.03;;;21.90;47.30;;;;;;5021843;28;21251;-60
2022/06/18 04:29:34;;;;;;;2.13;2.00;;;21.90;47.30;;;;;;5025429;28;20249;-60
2022/06/18 04:32:00;;;;;;;2.20;2.10;;;21.90;47.30;;;;;;5024981;28;20215;-60
2022/06/18 04:34:26;;;;;;;2.33;2.20;;;21.90;47.30;;;;;;5023947;28;20577;-60
2022/06/18 04:36:54;;;;;;;2.13;2.03;;;21.90;47.30;;;;;;5012243;28;20223;-60
2022/06/18 04:39:20;;;;;;;2.70;1.90;;;21.90;47.30;;;;;;5021063;28;20465;-61
2022/06/18 04:41:46;;;;;;;2.20;2.10;;;21.90;48.10;;;;;;5021543;28;20449;-60
2022/06/18 04:44:13;;;;;;;2.43;2.33;;;21.90;47.30;;;;;;5022582;28;20441;-60
2022/06/18 04:46:39;;;;;;;2.20;2.10;;;21.90;47.30;;;;;;5021792;28;20469;-60
2022/06/18 04:49:04;;;;;;;2.47;2.37;;;21.90;47.30;;;;;;5019821;28;20440;-60
2022/06/18 04:51:30;;;;;;;2.07;1.97;;;21.90;47.30;;;;;;5022114;28;20274;-60
2022/06/18 04:53:55;;;;;;;2.00;1.90;;;22.00;47.40;;;;;;5018388;28;20239;-60
2022/06/18 04:56:21;;;;;;;2.00;1.90;;;22.00;47.50;;;;;;5025376;28;20243;-60
2022/06/18 04:58:47;;;;;;;1.90;1.80;;;21.90;47.30;;;;;;5020923;28;20724;-60
2022/06/18 05:01:15;;;;;;;2.33;2.23;;;22.00;47.50;;;;;;5021256;28;20258;-60
2022/06/18 05:03:41;;;;;;;2.40;2.30;;;21.90;47.30;;;;;;5023731;28;20452;-60
2022/06/18 05:06:07;;;;;;;2.10;2.00;;;22.00;47.50;;;;;;5017759;28;20526;-61
2022/06/18 05:08:32;;;;;;;2.10;2.00;;;22.00;47.50;;;;;;5024264;28;20583;-63
2022/06/18 05:10:58;;;;;;;2.30;2.20;;;22.00;47.50;;;;;;5027703;28;20222;-61
2022/06/18 05:13:23;;;;;;;2.60;2.50;;;22.00;47.50;;;;;;5019188;28;20720;-61
2022/06/18 05:15:51;;;;;;;2.13;2.03;;;22.00;47.50;;;;;;5022808;28;20739;-61
2022/06/18 05:18:17;;;;;;;2.00;1.90;;;22.00;47.50;;;;;;5023544;28;20231;-61
2022/06/18 05:20:43;;;;;;;2.30;2.20;;;22.00;47.50;;;;;;5022496;28;20464;-60
2022/06/18 05:23:13;;;;;;;2.13;2.03;;;22.00;47.50;;;;;;5027162;28;20231;-61
2022/06/18 05:25:39;;;;;;;2.80;2.60;;;22.00;47.50;;;;;;5022010;28;20461;-60
2022/06/18 05:28:04;;;;;;;2.17;1.97;;;22.00;47.50;;;;;;5025612;28;20423;-61
2022/06/18 05:30:30;;;;;;;2.23;2.13;;;22.00;47.50;;;;;;5026109;28;20578;-60
2022/06/18 05:32:56;;;;;;;2.67;2.47;;;22.00;47.60;;;;;;5024622;28;20223;-61
2022/06/18 05:35:22;;;;;;;2.27;2.17;;;22.00;47.50;;;;;;5009160;28;20219;-61
2022/06/18 05:37:50;;;;;;;2.30;2.20;;;22.00;47.50;;;;;;5023853;28;20665;-61
2022/06/18 05:40:16;;;;;;;2.13;2.03;;;22.00;47.60;;;;;;5020906;28;20224;-61
2022/06/18 05:42:42;;;;;;;2.20;2.10;;;22.10;47.60;;;;;;5025117;28;20468;-60
2022/06/18 05:45:08;;;;;;;2.27;2.17;;;22.00;47.50;;;;;;5021188;28;20445;-60
2022/06/18 05:47:34;;;;;;;2.00;1.90;;;22.00;47.60;;;;;;5022907;28;20273;-60
2022/06/18 05:50:01;;;;;;;2.00;1.90;;;22.10;47.60;;;;;;5012355;28;20460;-60
2022/06/18 05:52:29;;;;;;;2.40;2.30;;;22.10;47.60;;;;;;5024019;28;20230;-60
2022/06/18 05:54:55;;;;;;;2.37;2.27;;;22.00;47.60;;;;;;5022684;28;20506;-61
2022/06/18 05:57:21;;;;;;;2.00;1.90;;;22.00;47.50;;;;;;5022238;28;20444;-60
2022/06/18 05:59:48;;;;;;;2.30;2.20;;;22.10;47.60;;;;;;5022380;28;20359;-60
2022/06/18 06:02:15;;;;;;;2.03;1.93;;;22.10;47.60;;;;;;5018928;28;20772;-61
2022/06/18 06:04:42;;;;;;;2.10;1.90;;;22.10;47.60;;;;;;5023544;28;20557;-61
2022/06/18 06:07:20;;;;;;;2.33;2.23;;;22.10;47.60;;;;;;5020278;28;21145;-60
2022/06/18 06:12:30;;;;;;;2.00;1.90;;;22.10;47.60;;;;;;5020054;28;20472;-60
2022/06/18 06:14:56;;;;;;;2.27;2.17;;;22.10;47.60;;;;;;5019529;28;20452;-60
2022/06/18 06:17:24;;;;;;;2.10;2.00;;;22.10;47.60;;;;;;5020062;28;20218;-60
2022/06/18 06:19:50;;;;;;;2.33;2.13;;;22.10;47.70;;;;;;5019302;28;20238;-62
2022/06/18 06:22:16;;;;;;;26.93;4.43;;;22.10;47.60;;;;;;5022731;28;20427;-61
2022/06/18 06:24:41;;;;;;;2.53;2.33;;;22.10;47.60;;;;;;5020904;28;20219;-62
2022/06/18 06:27:10;;;;;;;2.20;2.00;;;22.10;47.60;;;;;;5017240;28;20223;-60
2022/06/18 06:29:36;;;;;;;2.37;2.17;;;22.10;47.50;;;;;;5023098;28;20306;-60
2022/06/18 06:32:01;;;;;;;2.60;2.20;;;22.10;47.60;;;;;;5024120;28;20543;-60
2022/06/18 06:34:28;;;;;;;2.23;2.13;;;22.10;47.50;;;;;;5019591;28;20273;-60
2022/06/18 06:36:54;;;;;;;2.37;2.27;;;22.10;47.50;;;;;;5016832;28;20219;-61
2022/06/18 06:39:20;;;;;;;2.20;2.10;;;22.20;47.60;;;;;;5017913;28;20465;-61
2022/06/18 06:41:46;;;;;;;2.53;2.43;;;22.20;47.60;;;;;;5021487;28;21004;-61
2022/06/18 06:44:12;;;;;;;2.40;2.30;;;22.20;47.60;;;;;;5025730;28;20228;-61
2022/06/18 06:46:37;;;;;;;2.70;2.53;;;22.20;47.60;;;;;;5023337;28;20215;-60
2022/06/18 06:49:03;;;;;;;2.30;2.20;;;22.20;47.60;;;;;;5024454;28;20453;-60
2022/06/18 06:51:30;;;;;;;2.03;1.93;;;22.20;47.70;;;;;;5026485;28;20223;-60
2022/06/18 06:53:56;;;;;;;2.50;2.40;;;22.20;47.70;;;;;;5021952;28;20235;-61
2022/06/18 06:59:09;;;;;;;2.10;2.00;;;22.20;47.70;;;;;;5023365;28;20261;-61
2022/06/18 07:01:35;;;;;;;2.30;2.10;;;22.20;47.70;;;;;;5021264;28;20510;-60
2022/06/18 07:04:03;;;;;;;2.40;2.20;;;22.20;47.70;;;;;;5023948;28;20452;-60
2022/06/18 07:06:29;;;;;;;2.50;2.30;;;22.20;47.70;;;;;;5023642;28;20214;-60
2022/06/18 07:08:55;;;;;;;2.10;2.00;;;22.20;47.70;;;;;;5015727;28;20983;-60
2022/06/18 07:11:20;;;;;;;2.30;2.20;;;22.20;47.70;;;;;;5022890;28;20453;-59
2022/06/18 07:13:46;;;;;;;2.40;2.30;;;22.20;47.70;;;;;;5020829;28;20215;-59
2022/06/18 07:16:14;;;;;;;2.10;2.00;;;22.20;47.80;;;;;;5020128;28;20254;-61
2022/06/18 07:18:40;;;;;;;2.80;2.20;;;22.20;47.70;;;;;;5021864;28;20238;-60
2022/06/18 07:21:10;;;;;;;2.10;2.00;;;22.20;47.70;;;;;;5018944;28;20862;-59
2022/06/18 07:23:36;;;;;;;2.30;2.20;;;22.20;47.70;;;;;;5010856;28;20868;-59
2022/06/18 07:26:02;;;;;;;2.43;2.33;;;22.20;47.70;;;;;;5020520;28;20456;-60
2022/06/18 07:28:28;;;;;;;2.33;2.23;;;22.20;47.70;;;;;;5024390;28;20215;-59
2022/06/18 07:30:54;;;;;;;2.40;2.30;;;22.20;47.70;;;;;;5024236;28;20476;-59
2022/06/18 07:33:24;;;;;;;2.50;2.40;;;22.20;47.70;;;;;;5024103;28;20222;-59
2022/06/18 07:35:51;;;;;;;2.40;2.30;;;22.10;47.60;;;;;;5023276;28;20216;-62
2022/06/18 07:38:17;;;;;;;2.27;2.17;;;22.20;47.80;;;;;;5024783;28;20472;-61
2022/06/18 07:40:54;;;;;;;2.30;2.20;;;22.20;47.80;;;;;;5015535;28;20448;-60
2022/06/18 07:43:24;;;;;;;2.10;2.00;;;22.20;47.70;;;;;;5024429;28;20539;-60
2022/06/18 07:45:50;;;;;;;2.47;2.27;;;22.20;47.70;;;;;;5024965;28;20452;-60
2022/06/18 07:48:15;;;;;;;3.17;2.87;;;22.20;47.70;;;;;;5021641;28;20855;-60
2022/06/18 07:50:43;;;;;;;2.23;2.13;;;22.20;47.70;;;;;;5025804;28;20228;-60
2022/06/18 07:53:19;;;;;;;2.90;2.33;;;22.20;47.70;;;;;;5019067;28;20573;-60
2022/06/18 07:55:44;;;;;;;2.40;2.30;;;22.20;47.80;;;;;;5022366;28;20464;-60
2022/06/18 07:58:10;;;;;;;2.23;2.13;;;22.20;47.80;;;;;;5021142;28;20456;-63
2022/06/18 08:00:39;;;;;;;2.40;2.20;;;22.20;47.80;;;;;;5022207;28;20679;-62
2022/06/18 08:03:07;;;;;;;2.10;2.00;;;22.20;47.80;;;;;;5025435;28;20781;-62
2022/06/18 08:05:32;;;;;;;3.17;2.17;;;22.20;47.80;;;;;;5027187;28;20824;-62
2022/06/18 08:07:58;;;;;;;2.20;2.10;;;22.20;47.80;;;;;;5023812;28;20455;-64
2022/06/18 08:10:24;;;;;;;3.23;3.03;;;22.20;48.60;;;;;;5030142;28;20708;-62
2022/06/18 08:12:49;;;;;;;3.03;2.57;;;22.20;47.80;;;;;;5025073;28;20228;-63
2022/06/18 08:15:15;;;;;;;4.23;2.60;;;22.20;47.80;;;;;;5029693;28;20609;-64
2022/06/18 08:17:41;;;;;;;2.93;2.73;;;22.20;47.80;;;;;;5028749;28;20340;-63
2022/06/18 08:20:08;;;;;;;2.67;2.43;;;22.20;47.80;;;;;;5026665;28;20231;-62
2022/06/18 08:22:37;;;;;;;2.73;2.53;;;22.20;47.80;;;;;;5028125;28;20222;-62
2022/06/18 08:25:03;;;;;;;2.70;2.50;;;22.20;47.80;;;;;;5023565;28;20467;-64
2022/06/18 08:27:30;;;;;;;6.17;2.80;;;22.20;47.80;;;;;;5026569;28;20448;-63
2022/06/18 08:29:56;;;;;;;2.60;2.43;;;22.20;47.80;;;;;;5027786;28;20819;-62
2022/06/18 08:32:22;;;;;;;2.33;2.23;;;22.20;47.90;;;;;;5024388;28;20717;-64
2022/06/18 08:34:48;;;;;;;2.73;2.53;;;22.20;47.90;;;;;;5025326;28;20450;-64
2022/06/18 08:37:13;;;;;;;2.53;2.33;;;22.20;48.10;;;;;;5027196;28;20453;-63
2022/06/18 08:39:39;;;;;;;2.40;2.30;;;22.20;47.90;;;;;;5024106;28;20594;-60
2022/06/18 08:42:20;;;;;;;2.80;2.60;;;22.20;47.90;;;;;;5021457;28;20223;-63
2022/06/18 08:45:17;;;;;;;2.90;2.70;;;22.20;47.90;;;;;;5025711;28;20456;-63
2022/06/18 08:48:25;;;;;;;2.67;2.47;;;22.20;47.90;;;;;;4994956;28;20440;-63
2022/06/18 08:51:09;;;;;;;2.60;2.40;;;22.20;47.90;;;;;;4983768;28;20465;-63
2022/06/18 08:53:51;;;;;;;2.53;2.43;;;22.20;47.90;;;;;;5022227;28;20800;-63
2022/06/18 08:56:44;;;;;;;2.63;2.30;;;22.10;47.90;;;;;;5007685;28;20536;-63
2022/06/18 08:59:36;;;;;;;2.70;2.50;;;22.10;47.80;;;;;;5023275;28;20492;-65
2022/06/18 09:02:16;;;;;;;2.90;2.70;;;22.10;47.90;;;;;;5020402;28;20545;-62
2022/06/18 09:05:00;;;;;;;4.20;2.73;;;22.10;47.90;;;;;;5023331;28;20457;-62
2022/06/18 09:07:54;;;;;;;2.57;2.47;;;22.10;47.90;;;;;;5021269;28;20546;-63
2022/06/18 09:10:37;;;;;;;2.70;2.60;;;22.10;47.90;;;;;;5026238;28;20646;-61
2022/06/18 09:13:13;;;;;;;2.50;2.40;;;22.10;48.00;;;;;;5021436;28;20473;-63
2022/06/18 09:15:45;;;;;;;2.93;2.47;;;22.10;48.00;;;;;;5005168;28;20865;-62
2022/06/18 09:18:28;;;;;;;2.60;2.50;;;22.10;48.00;;;;;;5025411;28;20460;-61
2022/06/18 09:20:59;;;;;;;2.93;2.70;;;22.10;47.90;;;;;;5020490;28;20466;-61
2022/06/18 09:23:39;;;;;;;2.90;2.70;;;22.10;48.00;;;;;;5026738;28;20880;-62
2022/06/18 09:26:13;;;;;;;3.17;2.97;;;22.10;48.00;;;;;;5009784;28;20519;-61
2022/06/18 09:28:46;;;;;;;2.43;2.33;;;22.10;48.00;;;;;;5023566;28;20458;-61
2022/06/18 09:31:21;;;;;;;3.97;3.10;;;22.10;48.00;;;;;;5022662;28;20445;-61
2022/06/18 09:33:57;;;;;;;3.00;2.70;;;22.10;48.00;;;;;;5022647;28;20467;-61
2022/06/18 09:36:37;;;;;;;2.73;2.63;;;22.10;48.00;;;;;;5026176;28;20498;-61
2022/06/18 09:39:29;;;;;;;2.87;2.67;;;22.10;48.00;;;;;;5025716;28;20484;-60
2022/06/18 09:42:03;;;;;;;3.20;3.00;;;22.10;48.00;;;;;;5026052;28;20459;-61
2022/06/18 09:45:20;;;;;;;3.30;3.10;;;22.10;48.00;;;;;;5025362;28;20814;-61
2022/06/18 09:47:48;;;;;;;3.40;3.10;;;22.10;47.90;;;;;;4962032;28;20491;-61
2022/06/18 09:50:27;;;;;;;3.20;2.97;;;22.10;48.10;;;;;;4960206;28;20456;-61
2022/06/18 09:53:01;;;;;;;2.90;2.70;;;22.10;48.00;;;;;;4994448;28;20812;-61
2022/06/18 09:55:49;;;;;;;3.37;3.17;;;22.10;48.00;;;;;;5022316;28;20445;-61
2022/06/18 09:58:26;;;;;;;3.40;3.20;;;22.10;48.00;;;;;;5023534;28;20453;-60
2022/06/18 10:00:54;;;;;;;3.03;2.93;;;22.10;48.10;;;;;;5019283;28;20553;-61
2022/06/18 10:09:03;;;;;;;3.30;3.00;;;22.10;48.10;;;;;;5025532;28;20568;-61
2022/06/18 10:11:29;;;;;;;3.70;3.20;;;22.10;48.10;;;;;;5025190;28;20956;-61
2022/06/18 10:14:19;;;;;;;3.17;2.97;;;22.10;48.10;;;;;;5005302;28;20465;-62
2022/06/18 10:17:02;;;;;;;3.00;2.80;;;22.10;48.00;;;;;;5023021;28;20215;-61
2022/06/18 10:19:59;;;;;;;3.87;3.57;;;22.10;48.10;;;;;;5021079;28;20864;-60
2022/06/18 10:22:32;;;;;;;3.27;2.97;;;22.10;48.10;;;;;;5023245;28;20473;-62
2022/06/18 10:25:18;;;;;;;3.83;3.53;;;22.10;48.10;;;;;;5019185;28;21027;-61
2022/06/18 10:27:59;;;;;;;3.90;3.70;;;22.10;48.10;;;;;;5020613;28;20802;-61
2022/06/18 10:30:49;;;;;;;3.63;3.43;;;22.10;48.10;;;;;;5023106;28;20460;-61
2022/06/18 10:33:21;;;;;;;3.37;3.27;;;22.10;48.20;;;;;;5019872;28;20875;-61
2022/06/18 10:36:05;;;;;;;3.60;3.40;;;22.10;48.10;;;;;;5021025;28;20457;-61
2022/06/18 10:39:13;;;;;;;3.53;3.33;;;22.10;48.20;;;;;;5022530;28;20472;-61
2022/06/18 10:41:41;;;;;;;3.97;3.67;;;22.10;48.10;;;;;;5014185;28;20473;-61
2022/06/18 10:44:34;;;;;;;3.60;3.40;;;22.10;48.20;;;;;;5021188;28;20499;-61
2022/06/18 10:47:08;;;;;;;3.83;3.63;;;22.10;48.20;;;;;;5023275;28;20456;-61
2022/06/18 10:49:34;;;;;;;3.53;3.30;;;22.10;48.20;;;;;;5025569;28;20866;-60
2022/06/18 10:52:00;;;;;;;3.40;3.20;;;22.10;48.20;;;;;;5023783;28;20492;-61
2022/06/18 10:54:32;;;;;;;3.90;3.67;;;22.10;48.20;;;;;;5022895;28;20461;-61
2022/06/18 10:56:58;;;;;;;3.47;3.20;;;22.10;48.20;;;;;;5004177;28;20864;-61
2022/06/18 10:59:41;;;;;;;3.53;3.33;;;22.10;48.20;;;;;;5023285;28;20460;-62
2022/06/18 11:02:16;;;;;;;3.60;3.40;;;22.10;48.20;;;;;;5022990;28;20224;-61
2022/06/18 11:04:55;;;;;;;3.80;3.60;;;22.10;48.20;;;;;;5024407;28;20511;-61
2022/06/18 11:07:24;;;;;;;4.60;4.40;;;22.10;48.20;;;;;;5020005;28;20480;-61
2022/06/18 11:09:59;;;;;;;4.10;3.90;;;22.10;48.20;;;;;;5025595;28;20460;-61
2022/06/18 11:12:34;;;;;;;4.10;3.90;;;22.10;48.20;;;;;;5024130;28;20498;-61
2022/06/18 11:15:20;;;;;;;4.10;3.73;;;22.10;48.20;;;;;;5016229;28;20467;-61
2022/06/18 11:17:46;;;;;;;4.30;4.00;;;22.10;48.30;;;;;;5024310;28;20956;-63
2022/06/18 11:20:35;;;;;;;4.00;3.80;;;22.10;48.30;;;;;;5007592;28;20452;-63
2022/06/18 11:23:10;;;;;;;3.70;3.50;;;22.10;48.30;;;;;;5025482;28;20668;-63
2022/06/18 11:25:39;;;;;;;3.83;3.63;;;22.10;48.30;;;;;;4986712;28;20458;-60
2022/06/18 11:28:14;;;;;;;3.43;3.30;;;22.10;48.30;;;;;;5018381;28;20470;-58
2022/06/18 11:30:44;;;;;;;4.80;4.40;;;22.10;48.30;;;;;;5023123;28;20459;-62
2022/06/18 11:33:45;;;;;;;3.83;3.63;;;22.10;48.30;;;;;;5019845;28;20453;-59
2022/06/18 11:36:14;;;;;;;4.73;4.53;;;22.10;48.30;;;;;;5011258;28;20487;-59
2022/06/18 11:38:49;;;;;;;3.70;3.50;;;22.10;48.30;;;;;;5022273;28;20523;-59
2022/06/18 11:41:38;;;;;;;4.10;3.90;;;22.10;48.40;;;;;;5022050;28;20459;-58
2022/06/18 11:44:17;;;;;;;4.03;3.57;;;22.10;48.40;;;;;;5020266;28;21068;-59
2022/06/18 11:46:52;;;;;;;3.97;3.77;;;22.10;48.40;;;;;;5017512;28;20526;-59
2022/06/18 11:49:23;;;;;;;4.03;3.83;;;22.10;48.40;;;;;;5019480;28;20451;-58
2022/06/18 11:51:55;;;;;;;3.80;3.60;;;22.10;48.40;;;;;;5018877;28;20849;-59
2022/06/18 11:54:43;;;;;;;3.97;3.67;;;22.10;48.40;;;;;;5019794;28;20468;-59
2022/06/18 11:57:16;;;;;;;4.87;3.80;;;22.10;48.40;;;;;;5018793;28;20537;-59
2022/06/18 12:00:06;;;;;;;4.10;3.90;;;22.10;48.40;;;;;;5014935;28;20471;-59
2022/06/18 12:02:31;;;;;;;4.13;3.90;;;22.10;48.40;;;;;;5019588;28;20450;-58
2022/06/18 12:05:08;;;;;;;3.67;3.47;;;22.10;48.50;;;;;;5018547;28;20472;-58
2022/06/18 12:07:54;;;;;;;4.80;4.13;;;22.10;48.50;;;;;;5017761;28;20224;-59
2022/06/18 12:10:49;;;;;;;3.50;3.33;;;22.10;48.50;;;;;;5017743;28;20528;-59
2022/06/18 12:13:48;;;;;;;4.10;3.90;;;22.10;48.50;;;;;;4985045;28;20473;-59
2022/06/18 12:16:27;;;;;;;3.90;3.60;;;22.10;48.50;;;;;;5016531;28;20431;-59
2022/06/18 12:19:38;;;;;;;3.60;3.40;;;22.10;49.30;;;;;;5010089;28;20479;-59
2022/06/18 12:22:09;;;;;;;3.97;3.77;;;22.10;48.50;;;;;;5026653;28;20463;-59
2022/06/18 12:24:44;;;;;;;3.80;3.60;;;22.10;48.50;;;;;;5027333;28;20509;-59
2022/06/18 12:27:23;;;;;;;3.60;3.40;;;22.10;48.60;;;;;;5023868;28;20490;-59
2022/06/18 12:30:13;;;;;;;3.83;3.60;;;22.10;48.50;;;;;;5026900;28;20464;-59
2022/06/18 12:32:45;;;;;;;3.80;3.60;;;22.10;48.50;;;;;;5026172;28;20456;-59
2022/06/18 12:35:35;;;;;;;3.80;3.60;;;22.00;48.50;;;;;;5019657;28;20441;-59
2022/06/18 12:38:39;;;;;;;4.07;3.87;;;22.10;48.60;;;;;;5025994;28;20462;-59
2022/06/18 12:41:21;;;;;;;3.87;3.57;;;22.10;48.60;;;;;;4974850;28;20810;-59
2022/06/18 12:44:21;;;;;;;4.10;3.90;;;22.10;48.60;;;;;;5007127;28;20495;-59
2022/06/18 12:47:06;;;;;;;3.80;3.60;;;22.10;48.60;;;;;;4954883;28;20472;-59
2022/06/18 12:49:51;;;;;;;4.00;3.80;;;22.10;48.60;;;;;;5021364;28;20555;-59
2022/06/18 12:52:50;;;;;;;3.67;3.37;;;22.00;48.60;;;;;;5023273;28;20456;-59
2022/06/18 12:55:44;;;;;;;4.03;3.83;;;22.10;48.60;;;;;;5024030;28;20471;-59
2022/06/18 12:58:18;;;;;;;3.70;3.50;;;22.10;48.60;;;;;;5024418;28;20543;-59
2022/06/18 13:00:46;;;;;;;4.53;4.23;;;22.10;48.70;;;;;;5020103;28;20469;-59
2022/06/18 13:03:38;;;;;;;4.37;4.17;;;22.10;48.70;;;;;;5024058;28;20452;-59
2022/06/18 13:06:18;;;;;;;3.47;3.27;;;22.10;48.70;;;;;;5021023;28;20547;-58
2022/06/18 13:09:11;;;;;;;4.20;4.00;;;22.10;48.70;;;;;;5022030;28;20465;-58
2022/06/18 13:12:06;;;;;;;4.30;4.00;;;22.10;48.70;;;;;;5021272;28;20456;-59
2022/06/18 13:14:59;;;;;;;4.77;4.43;;;22.10;48.80;;;;;;5005810;28;20453;-59
2022/06/18 13:17:47;;;;;;;4.03;3.83;;;22.10;48.80;;;;;;5022844;28;20545;-59
2022/06/18 13:20:18;;;;;;;4.30;4.00;;;22.10;48.80;;;;;;5019630;28;20494;-59
2022/06/18 13:22:44;;;;;;;3.80;3.60;;;22.10;48.80;;;;;;5020623;28;20471;-59
2022/06/18 13:28:23;;;;;;;4.73;4.43;;;22.10;48.80;;;;;;5016400;28;20444;-59
2022/06/18 13:31:01;;;;;;;4.33;4.13;;;22.10;48.80;;;;;;5019526;28;20456;-59
2022/06/18 13:33:40;;;;;;;4.17;3.87;;;22.10;48.80;;;;;;5023875;28;20555;-59